sensor_id;sensor_type;location;lat;lon;timestamp;P1;durP1;ratioP1;P2;durP2;ratioP2
3895;SDS011;1963;48.804;8.358;2023-02-15T08:44:21;10.00;;;5.90;;
3895;SDS011;1963;48.804;8.358;2023-02-15T08:46:49;12.13;;;7.67;;
3895;SDS011;1963;48.804;8.358;2023-02-15T08:49:18;28.73;;;12.57;;
3895;SDS011;1963;48.804;8.358;2023-02-15T08:51:47;18.40;;;8.13;;
3895;SDS011;1963;48.804;8.358;2023-02-15T08:54:17;10.20;;;6.37;;
3895;SDS011;1963;48.804;8.358;2023-02-15T08:56:45;9.53;;;6.50;;
3895;SDS011;1963;48.804;8.358;2023-02-15T08:59:14;9.00;;;6.27;;
3895;SDS011;1963;48.804;8.358;2023-02-15T09:01:45;10.90;;;6.77;;
3895;SDS011;1963;48.804;8.358;2023-02-15T09:04:14;11.83;;;6.53;;
3895;SDS011;1963;48.804;8.358;2023-02-15T09:06:43;10.43;;;7.30;;
3895;SDS011;1963;48.804;8.358;2023-02-15T09:09:14;9.87;;;6.70;;
3895;SDS011;1963;48.804;8.358;2023-02-15T09:11:43;11.87;;;6.60;;
3895;SDS011;1963;48.804;8.358;2023-02-15T09:14:14;9.07;;;5.80;;
3895;SDS011;1963;48.804;8.358;2023-02-15T09:16:44;8.93;;;5.77;;
3895;SDS011;1963;48.804;8.358;2023-02-15T09:19:17;8.33;;;5.20;;
3895;SDS011;1963;48.804;8.358;2023-02-15T09:21:46;15.77;;;6.20;;
3895;SDS011;1963;48.804;8.358;2023-02-15T09:24:15;10.40;;;6.83;;
3895;SDS011;1963;48.804;8.358;2023-02-15T09:26:44;10.90;;;6.40;;
3895;SDS011;1963;48.804;8.358;2023-02-15T09:29:13;11.37;;;7.20;;
3895;SDS011;1963;48.804;8.358;2023-02-15T09:31:42;9.07;;;6.03;;
3895;SDS011;1963;48.804;8.358;2023-02-15T09:34:14;9.80;;;6.73;;
3895;SDS011;1963;48.804;8.358;2023-02-15T09:36:43;10.93;;;6.90;;
3895;SDS011;1963;48.804;8.358;2023-02-15T09:39:11;9.63;;;6.70;;
3895;SDS011;1963;48.804;8.358;2023-02-15T09:44:40;10.00;;;6.70;;
3895;SDS011;1963;48.804;8.358;2023-02-15T09:47:22;12.03;;;7.63;;
3895;SDS011;1963;48.804;8.358;2023-02-15T09:50:06;12.07;;;7.47;;
3895;SDS011;1963;48.804;8.358;2023-02-15T09:52:45;11.73;;;7.13;;
3895;SDS011;1963;48.804;8.358;2023-02-15T09:55:30;10.77;;;7.43;;
3895;SDS011;1963;48.804;8.358;2023-02-15T09:58:08;15.60;;;8.60;;
3895;SDS011;1963;48.804;8.358;2023-02-15T10:00:46;11.77;;;7.67;;
3895;SDS011;1963;48.804;8.358;2023-02-15T10:03:23;12.10;;;8.00;;
3895;SDS011;1963;48.804;8.358;2023-02-15T10:06:10;12.57;;;7.90;;
3895;SDS011;1963;48.804;8.358;2023-02-15T10:09:02;13.63;;;8.03;;
3895;SDS011;1963;48.804;8.358;2023-02-15T10:11:41;11.60;;;7.50;;
3895;SDS011;1963;48.804;8.358;2023-02-15T10:14:22;14.53;;;8.27;;
3895;SDS011;1963;48.804;8.358;2023-02-15T10:17:08;12.20;;;8.17;;
3895;SDS011;1963;48.804;8.358;2023-02-15T10:19:49;20.10;;;10.60;;
3895;SDS011;1963;48.804;8.358;2023-02-15T10:22:36;19.33;;;10.30;;
3895;SDS011;1963;48.804;8.358;2023-02-15T10:25:16;18.23;;;9.17;;
3895;SDS011;1963;48.804;8.358;2023-02-15T10:28:00;21.20;;;10.77;;
3895;SDS011;1963;48.804;8.358;2023-02-15T10:30:34;16.37;;;10.20;;
3895;SDS011;1963;48.804;8.358;2023-02-15T10:33:12;14.00;;;8.20;;
3895;SDS011;1963;48.804;8.358;2023-02-15T10:35:52;15.70;;;8.43;;
3895;SDS011;1963;48.804;8.358;2023-02-15T10:38:34;13.43;;;8.33;;
3895;SDS011;1963;48.804;8.358;2023-02-15T10:41:09;17.23;;;10.47;;
3895;SDS011;1963;48.804;8.358;2023-02-15T10:43:51;15.00;;;10.40;;
3895;SDS011;1963;48.804;8.358;2023-02-15T10:46:35;14.70;;;8.70;;
3895;SDS011;1963;48.804;8.358;2023-02-15T10:49:26;18.23;;;11.17;;
3895;SDS011;1963;48.804;8.358;2023-02-15T10:52:16;21.80;;;13.30;;
3895;SDS011;1963;48.804;8.358;2023-02-15T10:54:56;26.80;;;16.20;;
3895;SDS011;1963;48.804;8.358;2023-02-15T10:57:32;17.70;;;9.87;;
3895;SDS011;1963;48.804;8.358;2023-02-15T11:00:05;14.17;;;9.77;;
3895;SDS011;1963;48.804;8.358;2023-02-15T11:02:42;17.33;;;11.03;;
3895;SDS011;1963;48.804;8.358;2023-02-15T11:05:24;17.00;;;12.10;;
3895;SDS011;1963;48.804;8.358;2023-02-15T11:08:03;14.60;;;9.90;;
3895;SDS011;1963;48.804;8.358;2023-02-15T11:10:37;18.17;;;12.40;;
3895;SDS011;1963;48.804;8.358;2023-02-15T11:13:09;21.33;;;12.10;;
3895;SDS011;1963;48.804;8.358;2023-02-15T11:15:43;17.60;;;10.43;;
3895;SDS011;1963;48.804;8.358;2023-02-15T11:18:15;16.67;;;10.97;;
3895;SDS011;1963;48.804;8.358;2023-02-15T11:20:50;16.97;;;10.03;;
3895;SDS011;1963;48.804;8.358;2023-02-15T11:23:21;15.77;;;10.63;;
3895;SDS011;1963;48.804;8.358;2023-02-15T11:25:54;17.50;;;10.43;;
3895;SDS011;1963;48.804;8.358;2023-02-15T11:28:27;17.87;;;12.07;;
3895;SDS011;1963;48.804;8.358;2023-02-15T11:31:00;17.70;;;11.37;;
3895;SDS011;1963;48.804;8.358;2023-02-15T11:33:37;15.77;;;11.60;;
3895;SDS011;1963;48.804;8.358;2023-02-15T11:36:10;16.30;;;11.33;;
3895;SDS011;1963;48.804;8.358;2023-02-15T11:38:43;24.63;;;11.83;;
3895;SDS011;1963;48.804;8.358;2023-02-15T11:41:15;22.73;;;14.33;;
3895;SDS011;1963;48.804;8.358;2023-02-15T11:43:48;22.37;;;14.37;;
3895;SDS011;1963;48.804;8.358;2023-02-15T11:46:20;21.37;;;11.73;;
3895;SDS011;1963;48.804;8.358;2023-02-15T11:48:48;22.17;;;13.13;;
3895;SDS011;1963;48.804;8.358;2023-02-15T11:51:17;18.43;;;11.93;;
3895;SDS011;1963;48.804;8.358;2023-02-15T11:54:53;18.20;;;12.13;;
3895;SDS011;1963;48.804;8.358;2023-02-15T11:57:27;17.40;;;11.83;;
3895;SDS011;1963;48.804;8.358;2023-02-15T12:00:02;18.70;;;10.90;;
3895;SDS011;1963;48.804;8.358;2023-02-15T12:02:46;21.13;;;12.23;;
3895;SDS011;1963;48.804;8.358;2023-02-15T12:09:03;19.17;;;11.37;;
3895;SDS011;1963;48.804;8.358;2023-02-15T12:11:37;18.70;;;11.93;;
3895;SDS011;1963;48.804;8.358;2023-02-15T12:14:08;14.67;;;10.77;;
3895;SDS011;1963;48.804;8.358;2023-02-15T12:16:42;18.13;;;10.30;;
3895;SDS011;1963;48.804;8.358;2023-02-15T12:19:13;17.43;;;10.77;;
3895;SDS011;1963;48.804;8.358;2023-02-15T12:21:58;17.80;;;11.40;;
3895;SDS011;1963;48.804;8.358;2023-02-15T12:24:28;17.17;;;11.90;;
3895;SDS011;1963;48.804;8.358;2023-02-15T12:27:00;19.97;;;12.07;;
3895;SDS011;1963;48.804;8.358;2023-02-15T12:29:35;20.43;;;12.40;;
3895;SDS011;1963;48.804;8.358;2023-02-15T12:32:15;17.17;;;12.03;;
3895;SDS011;1963;48.804;8.358;2023-02-15T12:34:50;18.47;;;12.07;;
3895;SDS011;1963;48.804;8.358;2023-02-15T12:37:20;20.43;;;12.30;;
3895;SDS011;1963;48.804;8.358;2023-02-15T12:39:51;25.27;;;12.80;;
3895;SDS011;1963;48.804;8.358;2023-02-15T12:42:20;19.83;;;13.23;;
3895;SDS011;1963;48.804;8.358;2023-02-15T12:44:58;21.27;;;13.00;;
3895;SDS011;1963;48.804;8.358;2023-02-15T12:47:27;23.73;;;13.17;;
3895;SDS011;1963;48.804;8.358;2023-02-15T12:50:07;21.97;;;15.00;;
3895;SDS011;1963;48.804;8.358;2023-02-15T12:52:44;22.50;;;14.97;;
3895;SDS011;1963;48.804;8.358;2023-02-15T12:55:21;22.97;;;14.50;;
3895;SDS011;1963;48.804;8.358;2023-02-15T12:58:04;27.00;;;15.30;;
3895;SDS011;1963;48.804;8.358;2023-02-15T13:00:44;25.60;;;15.53;;
3895;SDS011;1963;48.804;8.358;2023-02-15T13:03:16;25.53;;;16.50;;
3895;SDS011;1963;48.804;8.358;2023-02-15T13:05:47;24.07;;;14.93;;
3895;SDS011;1963;48.804;8.358;2023-02-15T13:08:21;25.37;;;15.83;;
3895;SDS011;1963;48.804;8.358;2023-02-15T13:10:56;28.10;;;16.30;;
3895;SDS011;1963;48.804;8.358;2023-02-15T13:13:26;24.47;;;14.83;;
3895;SDS011;1963;48.804;8.358;2023-02-15T13:15:59;34.53;;;15.90;;
3895;SDS011;1963;48.804;8.358;2023-02-15T13:18:32;27.77;;;17.00;;
3895;SDS011;1963;48.804;8.358;2023-02-15T13:21:04;27.17;;;15.83;;
3895;SDS011;1963;48.804;8.358;2023-02-15T13:23:39;23.13;;;14.60;;
3895;SDS011;1963;48.804;8.358;2023-02-15T13:26:13;28.67;;;16.63;;
3895;SDS011;1963;48.804;8.358;2023-02-15T13:28:46;32.93;;;17.00;;
3895;SDS011;1963;48.804;8.358;2023-02-15T13:31:19;27.97;;;16.10;;
3895;SDS011;1963;48.804;8.358;2023-02-15T13:33:49;26.43;;;16.37;;
3895;SDS011;1963;48.804;8.358;2023-02-15T13:36:22;24.23;;;15.70;;
3895;SDS011;1963;48.804;8.358;2023-02-15T13:41:52;29.00;;;17.73;;
3895;SDS011;1963;48.804;8.358;2023-02-15T13:44:28;42.33;;;30.10;;
3895;SDS011;1963;48.804;8.358;2023-02-15T13:47:20;40.93;;;18.07;;
3895;SDS011;1963;48.804;8.358;2023-02-15T13:49:58;61.20;;;23.17;;
3895;SDS011;1963;48.804;8.358;2023-02-15T13:52:42;58.33;;;21.50;;
3895;SDS011;1963;48.804;8.358;2023-02-15T13:55:22;38.13;;;19.23;;
3895;SDS011;1963;48.804;8.358;2023-02-15T14:01:08;28.57;;;18.90;;
3895;SDS011;1963;48.804;8.358;2023-02-15T14:03:49;27.87;;;17.40;;
3895;SDS011;1963;48.804;8.358;2023-02-15T14:06:35;24.40;;;16.20;;
3895;SDS011;1963;48.804;8.358;2023-02-15T14:09:17;32.40;;;17.17;;
3895;SDS011;1963;48.804;8.358;2023-02-15T14:11:58;28.63;;;17.80;;
3895;SDS011;1963;48.804;8.358;2023-02-15T14:14:52;34.00;;;18.97;;
3895;SDS011;1963;48.804;8.358;2023-02-15T14:17:35;34.03;;;18.13;;
3895;SDS011;1963;48.804;8.358;2023-02-15T14:20:17;32.70;;;20.07;;
3895;SDS011;1963;48.804;8.358;2023-02-15T14:22:54;31.27;;;18.30;;
3895;SDS011;1963;48.804;8.358;2023-02-15T14:25:33;31.40;;;16.50;;
